createdAt,value
2023-05-07T00:00:25.602Z,97727.38
2023-05-07T00:03:15.145Z,97724.27
2023-05-07T00:05:45.727Z,97723.84
2023-05-07T00:08:13.886Z,97726.91
2023-05-07T00:10:42.153Z,97723.27
2023-05-07T00:13:10.156Z,97721.55
2023-05-07T00:15:38.576Z,97724.86
2023-05-07T00:18:06.769Z,97728.08
2023-05-07T00:20:36.295Z,97727.60
2023-05-07T00:23:04.644Z,97723.48
2023-05-07T00:25:32.796Z,97723.96
2023-05-07T00:28:04.797Z,97723.35
2023-05-07T00:30:33.253Z,97725.60
2023-05-07T00:33:01.285Z,97721.83
2023-05-07T00:35:30.809Z,97720.73
2023-05-07T00:37:59.299Z,97718.79
2023-05-07T00:40:27.737Z,97715.77
2023-05-07T00:42:58.036Z,97717.70
2023-05-07T00:45:30.638Z,97721.59
2023-05-07T00:48:01.712Z,97721.66
2023-05-07T00:50:30.942Z,97726.65
2023-05-07T00:53:01.094Z,97736.52
2023-05-07T00:55:29.745Z,97738.56
2023-05-07T00:57:57.911Z,97730.66
2023-05-07T01:00:28.085Z,97732.73
2023-05-07T01:02:56.257Z,97736.11
2023-05-07T01:05:27.507Z,97734.29
2023-05-07T01:07:57.472Z,97743.01
2023-05-07T01:10:26.327Z,97744.89
2023-05-07T01:12:55.378Z,97748.19
2023-05-07T01:15:23.662Z,97754.10
2023-05-07T01:17:52.057Z,97757.37
2023-05-07T01:20:26.283Z,97756.42
2023-05-07T01:22:56.082Z,97760.91
2023-05-07T01:25:25.095Z,97762.05
2023-05-07T01:27:54.652Z,97757.89
2023-05-07T01:30:24.651Z,97752.48
2023-05-07T01:33:10.087Z,97750.59
2023-05-07T01:35:44.762Z,97757.36
2023-05-07T01:38:17.112Z,97754.52
2023-05-07T01:40:45.183Z,97748.89
2023-05-07T01:43:13.703Z,97753.13
2023-05-07T01:45:42.730Z,97755.89
2023-05-07T01:48:12.653Z,97749.23
2023-05-07T01:50:41.076Z,97743.18
2023-05-07T01:53:12.990Z,97746.15
2023-05-07T01:55:41.180Z,97751.29
2023-05-07T01:58:10.176Z,97750.42
2023-05-07T02:00:41.983Z,97742.88
2023-05-07T02:03:10.524Z,97740.60
2023-05-07T02:05:45.996Z,97743.91
2023-05-07T02:08:32.928Z,97746.02
2023-05-07T02:11:01.556Z,97743.86
2023-05-07T02:13:31.566Z,97746.52
2023-05-07T02:15:59.950Z,97741.70
2023-05-07T02:18:30.075Z,97735.14
2023-05-07T02:20:58.148Z,97737.17
2023-05-07T02:23:28.031Z,97734.05
2023-05-07T02:26:00.445Z,97737.59
2023-05-07T02:28:28.522Z,97744.60
2023-05-07T02:31:01.769Z,97744.56
2023-05-07T02:33:30.361Z,97739.84
2023-05-07T02:36:09.678Z,97734.58
2023-05-07T02:38:40.175Z,97736.70
2023-05-07T02:41:08.616Z,97736.70
2023-05-07T02:43:39.623Z,97741.71
2023-05-07T02:46:09.713Z,97739.14
2023-05-07T02:48:40.617Z,97741.95
2023-05-07T02:51:09.585Z,97743.45
2023-05-07T02:53:39.395Z,97742.93
2023-05-07T02:56:07.921Z,97751.77
2023-05-07T02:58:35.951Z,97752.30
2023-05-07T03:01:05.556Z,97752.14
2023-05-07T03:04:14.361Z,97756.42
2023-05-07T03:06:43.268Z,97755.40
2023-05-07T03:09:11.808Z,97751.83
2023-05-07T03:11:40.106Z,97757.23
2023-05-07T03:14:10.845Z,97761.88
2023-05-07T03:16:39.302Z,97763.42
2023-05-07T03:19:07.710Z,97764.30
2023-05-07T03:21:38.265Z,97764.01
2023-05-07T03:24:06.803Z,97762.67
2023-05-07T03:26:35.129Z,97764.41
2023-05-07T03:29:03.187Z,97768.04
2023-05-07T03:31:31.484Z,97773.86
2023-05-07T03:34:04.293Z,97774.96
2023-05-07T03:36:35.078Z,97775.09
2023-05-07T03:39:03.371Z,97781.48
2023-05-07T03:41:37.434Z,97791.11
2023-05-07T03:44:06.064Z,97795.51
2023-05-07T03:46:35.357Z,97796.40
2023-05-07T03:49:03.674Z,97795.42
2023-05-07T03:51:32.046Z,97791.80
2023-05-07T03:54:00.115Z,97792.65
2023-05-07T03:56:30.576Z,97796.80
2023-05-07T03:58:59.114Z,97796.44
2023-05-07T04:01:29.756Z,97796.96
2023-05-07T04:03:59.960Z,97793.36
2023-05-07T04:06:28.718Z,97792.73
2023-05-07T04:08:57.065Z,97789.86
2023-05-07T04:11:26.084Z,97790.80
2023-05-07T04:13:55.156Z,97789.98
2023-05-07T04:16:25.324Z,97789.56
2023-05-07T04:18:53.598Z,97787.92
2023-05-07T04:21:22.571Z,97789.14
2023-05-07T04:23:52.431Z,97797.53
2023-05-07T04:26:22.346Z,97800.73
2023-05-07T04:28:50.420Z,97797.77
2023-05-07T04:31:18.822Z,97799.09
2023-05-07T04:33:51.759Z,97804.98
2023-05-07T04:36:20.121Z,97806.40
2023-05-07T04:38:55.612Z,97810.94
2023-05-07T04:41:23.737Z,97814.02
2023-05-07T04:43:52.717Z,97815.95
2023-05-07T04:46:23.002Z,97814.29
2023-05-07T04:48:51.132Z,97814.13
2023-05-07T04:51:22.472Z,97814.66
2023-05-07T04:53:50.755Z,97813.29
2023-05-07T04:56:18.949Z,97811.30
2023-05-07T04:58:48.774Z,97814.02
2023-05-07T05:01:17.809Z,97814.70
2023-05-07T05:03:46.901Z,97814.96
2023-05-07T05:06:15.055Z,97817.40
2023-05-07T05:08:43.004Z,97819.16
2023-05-07T05:11:11.218Z,97823.73
2023-05-07T05:13:39.574Z,97827.10
2023-05-07T05:16:13.125Z,97827.94
2023-05-07T05:18:41.751Z,97824.33
2023-05-07T05:21:10.796Z,97821.05
2023-05-07T05:23:40.049Z,97822.73
2023-05-07T05:26:08.415Z,97824.34
2023-05-07T05:28:36.526Z,97822.47
2023-05-07T05:31:06.515Z,97817.64
2023-05-07T05:33:36.772Z,97816.67
2023-05-07T05:36:08.025Z,97824.77
2023-05-07T05:38:38.022Z,97827.29
2023-05-07T05:41:06.387Z,97824.92
2023-05-07T05:43:34.629Z,97819.75
2023-05-07T05:46:03.011Z,97820.45
2023-05-07T05:48:31.464Z,97825.77
2023-05-07T05:51:01.120Z,97830.88
2023-05-07T05:53:29.207Z,97831.33
2023-05-07T05:55:59.620Z,97835.63
2023-05-07T05:58:28.222Z,97835.80
2023-05-07T06:01:00.215Z,97833.41
2023-05-07T06:03:28.897Z,97840.60
2023-05-07T06:05:57.449Z,97843.48
2023-05-07T06:08:25.778Z,97842.06
2023-05-07T06:10:53.901Z,97839.28
2023-05-07T06:13:23.248Z,97839.33
2023-05-07T06:15:52.090Z,97839.27
2023-05-07T06:18:20.810Z,97838.81
2023-05-07T06:20:50.008Z,97840.66
2023-05-07T06:23:29.680Z,97843.64
2023-05-07T06:25:57.695Z,97844.13
2023-05-07T06:28:29.048Z,97843.79
2023-05-07T06:31:12.437Z,97846.40
2023-05-07T06:33:44.034Z,97846.89
2023-05-07T06:36:12.280Z,97848.02
2023-05-07T06:38:41.137Z,97853.27
2023-05-07T06:41:09.137Z,97848.02
2023-05-07T06:43:39.790Z,97845.77
2023-05-07T06:46:26.737Z,97841.44
2023-05-07T06:48:55.309Z,97844.05
2023-05-07T06:51:23.932Z,97845.70
2023-05-07T06:53:52.447Z,97847.84
2023-05-07T06:56:22.156Z,97844.70
2023-05-07T06:58:50.413Z,97845.70
2023-05-07T07:01:19.341Z,97845.63
2023-05-07T07:03:47.948Z,97842.05
2023-05-07T07:06:16.132Z,97842.67
2023-05-07T07:08:44.743Z,97846.44
2023-05-07T07:11:13.955Z,97853.11
2023-05-07T07:13:42.664Z,97856.39
2023-05-07T07:16:10.956Z,97857.66
2023-05-07T07:18:40.445Z,97857.84
2023-05-07T07:21:08.850Z,97858.82
2023-05-07T07:23:36.944Z,97859.69
2023-05-07T07:26:05.101Z,97863.43
2023-05-07T07:28:33.982Z,97861.07
2023-05-07T07:31:02.247Z,97859.80
2023-05-07T07:33:31.979Z,97860.33
2023-05-07T07:36:00.069Z,97861.89
2023-05-07T07:38:28.228Z,97865.48
2023-05-07T07:40:56.393Z,97862.60
2023-05-07T07:43:27.152Z,97863.12
2023-05-07T07:45:55.486Z,97863.27
2023-05-07T07:48:23.850Z,97864.35
2023-05-07T07:50:55.137Z,97866.41
2023-05-07T07:53:26.929Z,97869.23
2023-05-07T07:55:59.221Z,97873.34
2023-05-07T07:58:29.562Z,97876.35
2023-05-07T08:00:58.083Z,97875.14
2023-05-07T08:03:26.983Z,97876.20
2023-05-07T08:05:59.852Z,97877.44
2023-05-07T08:08:28.809Z,97882.27
2023-05-07T08:10:56.846Z,97887.80
2023-05-07T08:13:31.019Z,97888.17
2023-05-07T08:15:59.586Z,97888.24
2023-05-07T08:18:29.986Z,97884.73
2023-05-07T08:21:02.796Z,97883.05
2023-05-07T08:23:35.581Z,97886.27
2023-05-07T08:26:04.784Z,97878.80
2023-05-07T08:28:33.527Z,97878.37
2023-05-07T08:31:02.287Z,97873.36
2023-05-07T08:33:33.445Z,97865.20
2023-05-07T08:36:02.290Z,97861.02
2023-05-07T08:38:31.296Z,97858.40
2023-05-07T08:41:01.133Z,97859.04
2023-05-07T08:43:34.117Z,97859.45
2023-05-07T08:46:03.697Z,97862.39
2023-05-07T08:48:34.188Z,97862.61
2023-05-07T08:51:17.945Z,97864.33
2023-05-07T08:53:49.439Z,97871.30
2023-05-07T08:56:22.349Z,97867.96
2023-05-07T08:58:51.086Z,97872.70
2023-05-07T09:01:19.464Z,97869.52
2023-05-07T09:03:49.436Z,97864.52
2023-05-07T09:06:18.552Z,97864.56
2023-05-07T09:08:52.146Z,97870.13
2023-05-07T09:11:26.640Z,97866.27
2023-05-07T09:13:57.293Z,97866.30
2023-05-07T09:16:27.022Z,97863.09
2023-05-07T09:18:56.056Z,97861.50
2023-05-07T09:21:25.845Z,97858.14
2023-05-07T09:23:56.804Z,97851.11
2023-05-07T09:26:30.251Z,97844.42
2023-05-07T09:28:58.393Z,97841.53
2023-05-07T09:31:27.219Z,97840.62
2023-05-07T09:33:57.000Z,97842.52
2023-05-07T09:36:28.163Z,97837.88
2023-05-07T09:38:57.682Z,97839.02
2023-05-07T09:41:27.246Z,97842.55
2023-05-07T09:44:02.531Z,97841.73
2023-05-07T09:46:37.885Z,97844.88
2023-05-07T09:49:22.155Z,97842.86
2023-05-07T09:51:53.454Z,97841.73
2023-05-07T09:54:24.015Z,97841.34
2023-05-07T09:57:06.299Z,97840.58
2023-05-07T09:59:35.846Z,97839.64
2023-05-07T10:02:06.995Z,97837.36
2023-05-07T10:04:47.175Z,97839.81
2023-05-07T10:07:17.489Z,97835.70
2023-05-07T10:09:48.957Z,97832.73
2023-05-07T10:12:25.017Z,97831.77
2023-05-07T10:14:55.082Z,97826.73
2023-05-07T10:17:24.745Z,97823.43
2023-05-07T10:19:57.621Z,97822.14
2023-05-07T10:22:28.560Z,97824.55
2023-05-07T10:25:00.736Z,97825.23
2023-05-07T10:27:30.342Z,97830.41
2023-05-07T10:30:20.499Z,97833.95
2023-05-07T10:32:52.445Z,97833.48
2023-05-07T10:35:31.547Z,97826.80
2023-05-07T10:38:00.336Z,97821.60
2023-05-07T10:40:29.628Z,97817.83
2023-05-07T10:43:00.623Z,97813.91
2023-05-07T10:45:30.681Z,97815.77
2023-05-07T10:48:29.508Z,97809.62
2023-05-07T10:51:22.898Z,97802.54
2023-05-07T10:54:19.924Z,97794.93
2023-05-07T10:56:55.969Z,97787.69
2023-05-07T10:59:42.439Z,97785.55
2023-05-07T11:02:17.686Z,97784.23
2023-05-07T11:05:25.022Z,97781.70
2023-05-07T11:08:05.173Z,97778.31
2023-05-07T11:10:53.240Z,97780.92
2023-05-07T11:13:51.438Z,97775.81
2023-05-07T11:16:38.211Z,97770.77
2023-05-07T11:19:55.111Z,97766.52
2023-05-07T11:22:42.605Z,97765.12
2023-05-07T11:25:31.782Z,97761.27
2023-05-07T11:28:11.549Z,97759.06
2023-05-07T11:30:44.696Z,97751.72
2023-05-07T11:33:18.554Z,97752.67
2023-05-07T11:35:47.396Z,97747.56
2023-05-07T11:38:17.323Z,97745.52
2023-05-07T11:40:57.406Z,97744.02
2023-05-07T11:43:25.676Z,97745.84
2023-05-07T11:45:54.239Z,97744.19
2023-05-07T11:48:23.487Z,97742.10
2023-05-07T11:51:02.361Z,97742.52
2023-05-07T11:53:40.295Z,97738.02
2023-05-07T11:56:12.725Z,97734.48
2023-05-07T11:58:42.138Z,97734.96
2023-05-07T12:01:13.063Z,97734.11
2023-05-07T12:03:43.863Z,97730.18
2023-05-07T12:06:14.230Z,97727.52
2023-05-07T12:08:45.266Z,97723.94
2023-05-07T12:11:26.302Z,97721.85
2023-05-07T12:13:59.801Z,97720.86
2023-05-07T12:16:28.885Z,97722.13
2023-05-07T12:19:00.556Z,97720.55
2023-05-07T12:21:29.410Z,97717.29
2023-05-07T12:23:57.773Z,97713.75
2023-05-07T12:26:25.946Z,97713.99
2023-05-07T12:28:54.469Z,97710.75
2023-05-07T12:31:25.540Z,97710.04
2023-05-07T12:33:54.458Z,97705.85
2023-05-07T12:36:22.943Z,97701.77
2023-05-07T12:38:51.376Z,97697.11
2023-05-07T12:41:19.476Z,97694.46
2023-05-07T12:43:48.028Z,97689.75
2023-05-07T12:46:18.241Z,97688.23
2023-05-07T12:48:47.633Z,97685.55
2023-05-07T12:51:17.133Z,97682.80
2023-05-07T12:53:46.437Z,97684.23
2023-05-07T12:56:17.166Z,97679.46
2023-05-07T12:58:46.020Z,97677.95
2023-05-07T13:01:16.754Z,97674.70
2023-05-07T13:03:50.106Z,97669.84
2023-05-07T13:06:19.391Z,97670.63
2023-05-07T13:08:47.658Z,97666.11
2023-05-07T13:11:16.386Z,97656.94
2023-05-07T13:13:44.477Z,97650.39
2023-05-07T13:16:13.816Z,97642.55
2023-05-07T13:18:44.910Z,97643.71
2023-05-07T13:21:14.394Z,97641.21
2023-05-07T13:23:42.746Z,97639.70
2023-05-07T13:26:24.712Z,97637.36
2023-05-07T13:28:57.688Z,97640.96
2023-05-07T13:31:28.350Z,97638.35
2023-05-07T13:33:57.441Z,97638.89
2023-05-07T13:36:25.672Z,97637.58
2023-05-07T13:38:53.955Z,97643.68
2023-05-07T13:41:22.120Z,97646.38
2023-05-07T13:43:50.853Z,97646.09
2023-05-07T13:46:19.372Z,97645.36
2023-05-07T13:48:47.800Z,97642.64
2023-05-07T13:51:16.409Z,97643.16
2023-05-07T13:53:44.366Z,97642.90
2023-05-07T13:56:12.608Z,97636.50
2023-05-07T13:58:52.119Z,97639.48
2023-05-07T14:01:27.977Z,97643.29
2023-05-07T14:03:58.149Z,97645.63
2023-05-07T14:06:26.730Z,97643.67
2023-05-07T14:08:54.784Z,97645.88
2023-05-07T14:11:23.397Z,97644.99
2023-05-07T14:13:52.043Z,97640.54
2023-05-07T14:16:20.250Z,97638.23
2023-05-07T14:18:48.898Z,97640.88
2023-05-07T14:21:17.035Z,97639.27
2023-05-07T14:23:45.850Z,97642.77
2023-05-07T14:26:14.090Z,97639.99
2023-05-07T14:28:47.374Z,97645.81
2023-05-07T14:31:15.951Z,97637.56
2023-05-07T14:33:44.174Z,97640.69
2023-05-07T14:36:14.168Z,97641.52
2023-05-07T14:38:42.160Z,97634.03
2023-05-07T14:41:10.244Z,97626.11
2023-05-07T14:43:39.201Z,97626.04
2023-05-07T14:46:07.701Z,97622.48
2023-05-07T14:48:36.923Z,97621.73
2023-05-07T14:51:05.010Z,97625.44
2023-05-07T14:53:33.077Z,97624.31
2023-05-07T14:56:01.934Z,97618.27
2023-05-07T14:58:30.220Z,97613.10
2023-05-07T15:01:00.872Z,97613.88
2023-05-07T15:03:29.863Z,97612.82
2023-05-07T15:05:58.446Z,97616.71
2023-05-07T15:08:27.626Z,97615.16
2023-05-07T15:10:56.619Z,97612.75
2023-05-07T15:13:27.617Z,97611.72
2023-05-07T15:15:56.310Z,97611.45
2023-05-07T15:18:26.978Z,97608.20
2023-05-07T15:20:58.059Z,97612.38
2023-05-07T15:23:27.244Z,97611.26
2023-05-07T15:25:56.036Z,97613.88
2023-05-07T15:28:25.547Z,97615.05
2023-05-07T15:30:56.525Z,97611.13
2023-05-07T15:33:29.047Z,97602.92
2023-05-07T15:36:01.202Z,97594.02
2023-05-07T15:38:29.598Z,97586.00
2023-05-07T15:40:58.372Z,97588.22
2023-05-07T15:43:26.755Z,97603.61
2023-05-07T15:45:54.986Z,97604.73
2023-05-07T15:48:23.110Z,97591.92
2023-05-07T15:50:53.310Z,97579.56
2023-05-07T15:53:21.567Z,97590.61
2023-05-07T15:55:49.981Z,97596.86
2023-05-07T15:58:20.849Z,97604.80
2023-05-07T16:00:49.451Z,97603.98
2023-05-07T16:03:19.502Z,97609.38
2023-05-07T16:05:47.927Z,97625.60
2023-05-07T16:08:16.003Z,97640.81
2023-05-07T16:10:44.193Z,97663.33
2023-05-07T16:13:12.331Z,97706.69
2023-05-07T16:15:41.360Z,97758.16
2023-05-07T16:18:10.764Z,97777.13
2023-05-07T16:20:39.138Z,97779.52
2023-05-07T16:23:07.351Z,97804.33
2023-05-07T16:25:35.791Z,97797.31
2023-05-07T16:28:03.846Z,97798.58
2023-05-07T16:30:31.975Z,97806.09
2023-05-07T16:33:02.192Z,97800.50
2023-05-07T16:35:31.271Z,97807.42
2023-05-07T16:37:59.757Z,97825.36
2023-05-07T16:40:27.934Z,97836.15
2023-05-07T16:42:57.864Z,97846.45
2023-05-07T16:45:26.170Z,97856.99
2023-05-07T16:47:54.243Z,97866.20
2023-05-07T16:50:22.532Z,97866.23
2023-05-07T16:52:50.790Z,97867.61
2023-05-07T16:55:18.874Z,97876.66
2023-05-07T16:57:46.945Z,97885.27
2023-05-07T17:00:15.574Z,97898.70
2023-05-07T17:02:43.983Z,97904.16
2023-05-07T17:05:13.917Z,97908.76
2023-05-07T17:07:42.614Z,97909.97
2023-05-07T17:10:11.811Z,97904.15
2023-05-07T17:12:40.762Z,97897.79
2023-05-07T17:15:10.856Z,97890.31
2023-05-07T17:17:41.445Z,97893.75
2023-05-07T17:20:10.300Z,97891.23
2023-05-07T17:22:38.715Z,97889.30
2023-05-07T17:25:07.034Z,97886.02
2023-05-07T17:27:35.127Z,97884.59
2023-05-07T17:30:03.902Z,97878.29
2023-05-07T17:32:32.892Z,97872.81
2023-05-07T17:35:01.702Z,97873.67
2023-05-07T17:37:30.065Z,97875.32
2023-05-07T17:39:59.466Z,97878.45
2023-05-07T17:42:27.972Z,97894.17
2023-05-07T17:44:56.197Z,97903.50
2023-05-07T17:47:24.717Z,97899.73
2023-05-07T17:49:52.744Z,97899.09
2023-05-07T17:52:20.897Z,97906.62
2023-05-07T17:54:50.228Z,97902.71
2023-05-07T17:57:18.819Z,97898.33
2023-05-07T17:59:46.833Z,97897.29
2023-05-07T18:02:14.966Z,97898.56
2023-05-07T18:04:44.700Z,97900.08
2023-05-07T18:07:12.821Z,97898.60
2023-05-07T18:09:41.207Z,97900.13
2023-05-07T18:12:12.025Z,97897.40
2023-05-07T18:14:40.074Z,97897.60
2023-05-07T18:17:08.218Z,97899.28
2023-05-07T18:19:36.693Z,97906.37
2023-05-07T18:22:04.874Z,97914.36
2023-05-07T18:24:33.403Z,97917.23
2023-05-07T18:27:01.610Z,97913.02
2023-05-07T18:29:29.885Z,97908.13
2023-05-07T18:31:58.079Z,97909.88
2023-05-07T18:34:26.674Z,97919.23
2023-05-07T18:36:54.661Z,97928.88
2023-05-07T18:39:22.595Z,97935.69
2023-05-07T18:41:50.919Z,97941.77
2023-05-07T18:44:18.984Z,97938.95
2023-05-07T18:46:49.361Z,97941.31
2023-05-07T18:49:17.549Z,97940.41
2023-05-07T18:51:45.772Z,97943.88
2023-05-07T18:54:15.001Z,97948.17
2023-05-07T18:56:43.016Z,97949.80
2023-05-07T18:59:11.232Z,97946.49
2023-05-07T19:01:39.595Z,97944.98
2023-05-07T19:04:08.348Z,97947.23
2023-05-07T19:06:36.521Z,97950.16
2023-05-07T19:09:07.822Z,97953.02
2023-05-07T19:11:35.868Z,97950.75
2023-05-07T19:14:04.666Z,97942.70
2023-05-07T19:16:33.088Z,97934.50
2023-05-07T19:19:03.297Z,97937.23
2023-05-07T19:21:31.791Z,97940.57
2023-05-07T19:23:59.936Z,97938.81
2023-05-07T19:26:28.227Z,97942.44
2023-05-07T19:29:12.493Z,97937.51
2023-05-07T19:31:44.950Z,97933.14
2023-05-07T19:34:18.121Z,97928.45
2023-05-07T19:36:46.213Z,97934.48
2023-05-07T19:39:14.817Z,97931.75
2023-05-07T19:41:43.096Z,97922.95
2023-05-07T19:44:11.476Z,97921.11
2023-05-07T19:46:43.259Z,97915.98
2023-05-07T19:49:13.064Z,97912.23
2023-05-07T19:51:41.480Z,97912.42
2023-05-07T19:54:09.907Z,97910.80
2023-05-07T19:56:39.945Z,97910.91
2023-05-07T19:59:08.459Z,97911.13
2023-05-07T20:01:36.769Z,97908.88
2023-05-07T20:04:05.291Z,97910.88
2023-05-07T20:06:34.558Z,97906.14
2023-05-07T20:09:04.612Z,97913.45
2023-05-07T20:11:32.693Z,97915.98
2023-05-07T20:14:00.755Z,97914.96
2023-05-07T20:16:28.734Z,97912.93
2023-05-07T20:18:56.853Z,97913.13
2023-05-07T20:21:24.926Z,97919.81
2023-05-07T20:23:55.408Z,97918.63
2023-05-07T20:26:23.555Z,97923.56
2023-05-07T20:28:51.522Z,97921.40
2023-05-07T20:31:20.562Z,97921.39
2023-05-07T20:33:48.664Z,97921.27
2023-05-07T20:36:16.694Z,97922.70
2023-05-07T20:38:45.956Z,97921.30
2023-05-07T20:41:14.363Z,97920.31
2023-05-07T20:43:42.755Z,97926.61
2023-05-07T20:46:10.753Z,97930.00
2023-05-07T20:48:38.808Z,97931.10
2023-05-07T20:51:07.483Z,97932.24
2023-05-07T20:53:37.521Z,97930.20
2023-05-07T20:56:05.617Z,97926.69
2023-05-07T20:58:33.647Z,97921.11
2023-05-07T21:01:01.643Z,97927.91
2023-05-07T21:03:29.839Z,97927.62
2023-05-07T21:06:00.314Z,97925.80
2023-05-07T21:08:28.482Z,97925.88
2023-05-07T21:10:56.721Z,97925.91
2023-05-07T21:13:24.813Z,97920.05
2023-05-07T21:15:53.368Z,97924.21
2023-05-07T21:18:21.330Z,97926.78
2023-05-07T21:20:49.290Z,97928.50
2023-05-07T21:23:17.431Z,97932.90
2023-05-07T21:25:48.262Z,97936.63
2023-05-07T21:28:16.308Z,97934.48
2023-05-07T21:30:44.559Z,97939.36
2023-05-07T21:33:12.570Z,97934.88
2023-05-07T21:35:40.617Z,97934.12
2023-05-07T21:38:08.895Z,97928.74
2023-05-07T21:40:36.962Z,97924.99
2023-05-07T21:43:05.033Z,97919.67
2023-05-07T21:45:33.085Z,97917.42
2023-05-07T21:48:01.249Z,97915.48
2023-05-07T21:50:29.305Z,97914.96
2023-05-07T21:52:57.761Z,97916.73
2023-05-07T21:55:25.698Z,97914.86
2023-05-07T21:58:01.957Z,97916.49
2023-05-07T22:00:33.017Z,97912.02
2023-05-07T22:03:01.478Z,97906.83
2023-05-07T22:05:29.909Z,97907.16
2023-05-07T22:07:57.838Z,97909.00
2023-05-07T22:10:25.996Z,97907.61
2023-05-07T22:12:54.201Z,97909.85
2023-05-07T22:15:22.403Z,97907.95
2023-05-07T22:17:51.099Z,97907.21
2023-05-07T22:20:19.660Z,97908.23
2023-05-07T22:22:50.974Z,97901.71
2023-05-07T22:25:25.247Z,97901.30
2023-05-07T22:27:53.209Z,97901.79
2023-05-07T22:30:21.136Z,97907.98
2023-05-07T22:32:49.117Z,97915.73
2023-05-07T22:35:17.259Z,97917.61
2023-05-07T22:37:45.477Z,97915.98
2023-05-07T22:40:14.138Z,97912.55
2023-05-07T22:42:42.263Z,97908.52
2023-05-07T22:45:10.774Z,97908.92
2023-05-07T22:47:38.880Z,97906.06
2023-05-07T22:50:08.026Z,97905.09
2023-05-07T22:52:36.463Z,97903.54
2023-05-07T22:55:04.725Z,97899.17
2023-05-07T22:57:32.866Z,97900.05
2023-05-07T23:00:01.108Z,97903.00
2023-05-07T23:02:29.556Z,97902.31
2023-05-07T23:05:01.756Z,97898.19
2023-05-07T23:07:29.857Z,97897.30
2023-05-07T23:09:57.782Z,97893.27
2023-05-07T23:12:25.885Z,97890.86
2023-05-07T23:14:53.967Z,97890.61
2023-05-07T23:17:22.131Z,97886.98
2023-05-07T23:19:50.358Z,97879.59
2023-05-07T23:22:18.487Z,97878.17
2023-05-07T23:24:46.621Z,97885.30
2023-05-07T23:27:14.882Z,97888.27
2023-05-07T23:29:46.090Z,97886.67
2023-05-07T23:32:14.153Z,97885.55
2023-05-07T23:34:42.126Z,97881.02
2023-05-07T23:37:10.540Z,97876.44
2023-05-07T23:39:38.690Z,97872.05
2023-05-07T23:42:06.969Z,97863.77
2023-05-07T23:44:34.942Z,97866.08
2023-05-07T23:47:03.257Z,97868.23
2023-05-07T23:49:31.233Z,97866.77
2023-05-07T23:51:59.412Z,97866.60
2023-05-07T23:54:27.409Z,97865.49
2023-05-07T23:56:55.481Z,97865.48
2023-05-07T23:59:23.451Z,97869.43
